Terminal Aerodrome Forecast
Issued by NWS

Home | Current Version | Previous Version | Text Only | Print | Product List | Glossary On
Versions: 1 2 3 4 5 6 7 8 9 10 11 12
000
FTUS45 KBOI 230529
TAFMYL
TAF
KMYL 230529Z 2306/2406 VRB04KT P6SM SKC
     FM232000 20006KT P6SM SCT090
     FM240000 VRB06KT P6SM VCTS SCT100CB BKN150=

USA.gov is the U.S. government's official web portal to all federal, state and local government web resources and services.